createdAt,value
2019-03-22T00:00:01.894Z,11.41
2019-03-22T00:01:01.644Z,11.32
2019-03-22T00:02:01.405Z,11.3
2019-03-22T00:03:01.700Z,11.32
2019-03-22T00:04:01.706Z,11.27
2019-03-22T00:05:01.726Z,11.33
2019-03-22T00:06:01.746Z,11.26
2019-03-22T00:07:01.763Z,11.33
2019-03-22T00:08:01.783Z,11.33
2019-03-22T00:09:01.556Z,11.3
2019-03-22T00:10:01.819Z,11.27
2019-03-22T00:11:01.682Z,11.33
2019-03-22T00:12:04.169Z,11.23
2019-03-22T00:13:01.619Z,11.29
2019-03-22T00:14:01.636Z,11.26
2019-03-22T00:15:01.657Z,11.26
2019-03-22T00:16:01.677Z,11.19
2019-03-22T00:17:02.032Z,11.23
2019-03-22T00:18:01.977Z,11.19
2019-03-22T00:19:02.002Z,11.17
2019-03-22T00:20:01.756Z,11.26
2019-03-22T00:21:01.786Z,11.12
2019-03-22T00:22:02.053Z,11.14
2019-03-22T00:23:01.810Z,11.17
2019-03-22T00:24:01.831Z,11.18
2019-03-22T00:25:02.109Z,11.19
2019-03-22T00:26:01.870Z,11.18
2019-03-22T00:27:01.914Z,11.18
2019-03-22T00:28:02.169Z,11.19
2019-03-22T00:29:02.185Z,11.17
2019-03-22T00:30:01.942Z,11.12
2019-03-22T00:31:02.231Z,11.18
2019-03-22T00:32:02.253Z,11.1
2019-03-22T00:33:02.539Z,11.1
2019-03-22T00:34:02.293Z,11.15
2019-03-22T00:35:02.301Z,11.11
2019-03-22T00:36:02.319Z,11.14
2019-03-22T00:37:02.343Z,11.11
2019-03-22T00:38:02.095Z,11.1
2019-03-22T00:39:02.397Z,11.1
2019-03-22T00:40:02.395Z,11.11
2019-03-22T00:41:02.419Z,11.1
2019-03-22T00:42:02.198Z,11.14
2019-03-22T00:43:02.457Z,11.05
2019-03-22T00:44:02.211Z,11.05
2019-03-22T00:45:02.679Z,11.11
2019-03-22T00:46:02.515Z,11.1
2019-03-22T00:47:02.800Z,11.04
2019-03-22T00:48:02.863Z,11.04
2019-03-22T00:49:02.831Z,10.99
2019-03-22T00:50:02.868Z,11.05
2019-03-22T00:51:02.610Z,11.02
2019-03-22T00:52:02.628Z,11.05
2019-03-22T00:53:02.384Z,11.04
2019-03-22T00:54:02.668Z,11.02
2019-03-22T00:55:02.802Z,11
2019-03-22T00:56:02.442Z,10.99
2019-03-22T00:57:02.465Z,10.97
2019-03-22T00:58:02.758Z,10.96
2019-03-22T00:59:02.763Z,11.05
2019-03-22T01:00:02.966Z,11.07
2019-03-22T01:01:02.804Z,11.04
2019-03-22T01:02:02.573Z,11.02
2019-03-22T01:03:02.840Z,10.99
2019-03-22T01:04:02.862Z,11.05
2019-03-22T01:05:02.881Z,11.05
2019-03-22T01:06:02.940Z,11.05
2019-03-22T01:07:02.663Z,11.02
2019-03-22T01:08:02.937Z,11.08
2019-03-22T01:09:02.958Z,10.97
2019-03-22T01:10:03.247Z,11
2019-03-22T01:11:02.729Z,11.04
2019-03-22T01:12:03.021Z,10.97
2019-03-22T01:13:03.033Z,10.94
2019-03-22T01:14:03.309Z,11.05
2019-03-22T01:15:02.811Z,10.99
2019-03-22T01:16:02.841Z,10.97
2019-03-22T01:17:02.842Z,11
2019-03-22T01:18:03.129Z,10.96
2019-03-22T01:19:03.145Z,10.96
2019-03-22T01:20:03.168Z,10.97
2019-03-22T01:21:03.190Z,11.02
2019-03-22T01:22:03.205Z,10.94
2019-03-22T01:23:03.220Z,10.99
2019-03-22T01:24:04.724Z,10.94
2019-03-22T01:25:03.000Z,10.94
2019-03-22T01:26:03.538Z,10.96
2019-03-22T01:27:03.033Z,10.9
2019-03-22T01:28:03.051Z,10.9
2019-03-22T01:29:03.347Z,10.89
2019-03-22T01:30:03.625Z,10.99
2019-03-22T01:31:03.375Z,10.92
2019-03-22T01:32:03.656Z,10.89
2019-03-22T01:33:03.420Z,10.92
2019-03-22T01:34:03.442Z,10.92
2019-03-22T01:35:03.709Z,10.93
2019-03-22T01:36:03.471Z,10.76
2019-03-22T01:37:03.500Z,10.92
2019-03-22T01:38:03.509Z,10.89
2019-03-22T01:39:03.265Z,10.93
2019-03-22T01:40:03.815Z,10.86
2019-03-22T01:41:03.559Z,10.82
2019-03-22T01:42:03.578Z,10.82
2019-03-22T01:43:03.861Z,10.82
2019-03-22T01:44:03.619Z,10.78
2019-03-22T01:45:03.634Z,10.84
2019-03-22T01:46:03.394Z,10.82
2019-03-22T01:47:03.429Z,10.79
2019-03-22T01:48:04.019Z,10.75
2019-03-22T01:49:03.715Z,10.92
2019-03-22T01:50:03.995Z,10.82
2019-03-22T01:51:03.488Z,10.82
2019-03-22T01:52:04.034Z,10.76
2019-03-22T01:53:03.527Z,10.81
2019-03-22T01:54:03.810Z,10.78
2019-03-22T01:55:03.563Z,10.75
2019-03-22T01:56:03.837Z,10.75
2019-03-22T01:57:03.864Z,10.81
2019-03-22T01:58:03.884Z,10.78
2019-03-22T01:59:03.904Z,10.76
2019-03-22T02:00:03.924Z,10.78
2019-03-22T02:01:04.203Z,10.81
2019-03-22T02:02:03.967Z,10.84
2019-03-22T02:03:04.246Z,10.74
2019-03-22T02:04:03.735Z,10.87
2019-03-22T02:05:04.284Z,10.74
2019-03-22T02:06:04.045Z,10.79
2019-03-22T02:07:04.066Z,10.72
2019-03-22T02:08:03.820Z,10.82
2019-03-22T02:09:04.350Z,10.74
2019-03-22T02:10:03.841Z,10.81
2019-03-22T02:11:04.125Z,10.74
2019-03-22T02:12:04.144Z,10.74
2019-03-22T02:13:04.197Z,10.84
2019-03-22T02:14:04.177Z,10.74
2019-03-22T02:15:04.466Z,10.78
2019-03-22T02:16:04.222Z,10.74
2019-03-22T02:17:03.981Z,10.75
2019-03-22T02:18:04.256Z,10.76
2019-03-22T02:19:04.016Z,10.72
2019-03-22T02:20:04.296Z,10.67
2019-03-22T02:21:04.045Z,10.75
2019-03-22T02:22:04.078Z,10.69
2019-03-22T02:23:04.350Z,10.76
2019-03-22T02:24:04.365Z,10.72
2019-03-22T02:25:04.656Z,10.76
2019-03-22T02:26:04.418Z,10.69
2019-03-22T02:27:04.165Z,10.67
2019-03-22T02:28:09.107Z,10.69
2019-03-22T02:29:04.196Z,10.78
2019-03-22T02:30:04.520Z,10.76
2019-03-22T02:31:04.513Z,10.72
2019-03-22T02:32:04.525Z,10.68
2019-03-22T02:33:04.809Z,10.63
2019-03-22T02:34:04.854Z,10.63
2019-03-22T02:35:04.580Z,10.59
2019-03-22T02:36:04.438Z,10.59
2019-03-22T02:37:04.615Z,10.69
2019-03-22T02:38:04.665Z,10.63
2019-03-22T02:39:04.955Z,10.59
2019-03-22T02:40:05.150Z,10.69
2019-03-22T02:41:04.697Z,10.63
2019-03-22T02:42:05.006Z,10.69
2019-03-22T02:43:04.782Z,10.72
2019-03-22T02:44:04.784Z,10.63
2019-03-22T02:45:05.141Z,10.59
2019-03-22T02:46:04.785Z,10.68
2019-03-22T02:47:04.803Z,10.63
2019-03-22T02:48:04.831Z,10.67
2019-03-22T02:49:04.864Z,10.63
2019-03-22T02:50:20.648Z,10.59
2019-03-22T02:51:04.624Z,10.61
2019-03-22T02:52:04.907Z,10.6
2019-03-22T02:53:04.977Z,10.63
2019-03-22T02:54:04.945Z,10.57
2019-03-22T02:55:05.559Z,10.6
2019-03-22T02:56:05.361Z,10.56
2019-03-22T02:57:05.257Z,10.6
2019-03-22T02:58:19.288Z,10.67
2019-03-22T02:59:05.049Z,10.54
2019-03-22T03:00:04.861Z,10.64
2019-03-22T03:01:05.095Z,10.61
2019-03-22T03:02:04.853Z,10.57
2019-03-22T03:03:04.843Z,10.6
2019-03-22T03:04:05.387Z,10.53
2019-03-22T03:05:05.135Z,10.49
2019-03-22T03:06:05.185Z,10.48
2019-03-22T03:07:05.186Z,10.53
2019-03-22T03:08:04.929Z,10.49
2019-03-22T03:09:05.209Z,10.41
2019-03-22T03:10:05.256Z,10.54
2019-03-22T03:11:05.248Z,10.57
2019-03-22T03:12:05.533Z,10.48
2019-03-22T03:13:05.291Z,10.49
2019-03-22T03:14:05.736Z,10.53
2019-03-22T03:15:05.357Z,10.41
2019-03-22T03:16:05.343Z,10.48
2019-03-22T03:17:05.361Z,10.4
2019-03-22T03:18:05.394Z,10.44
2019-03-22T03:19:05.406Z,10.54
2019-03-22T03:20:05.422Z,10.49
2019-03-22T03:21:05.167Z,10.46
2019-03-22T03:22:05.738Z,10.53
2019-03-22T03:23:05.470Z,10.49
2019-03-22T03:24:05.497Z,10.38
2019-03-22T03:25:05.514Z,10.44
2019-03-22T03:26:05.837Z,10.42
2019-03-22T03:27:05.832Z,10.44
2019-03-22T03:28:05.333Z,10.41
2019-03-22T03:29:05.847Z,10.44
2019-03-22T03:30:05.868Z,10.46
2019-03-22T03:31:05.383Z,10.38
2019-03-22T03:32:05.673Z,10.42
2019-03-22T03:33:05.696Z,10.38
2019-03-22T03:34:05.988Z,10.37
2019-03-22T03:35:05.652Z,10.41
2019-03-22T03:36:05.459Z,10.42
2019-03-22T03:37:05.747Z,10.37
2019-03-22T03:38:06.023Z,10.33
2019-03-22T03:39:05.509Z,10.42
2019-03-22T03:40:05.801Z,10.42
2019-03-22T03:41:05.549Z,10.4
2019-03-22T03:42:05.607Z,10.42
2019-03-22T03:43:05.857Z,10.34
2019-03-22T03:44:05.872Z,10.41
2019-03-22T03:45:05.885Z,10.41
2019-03-22T03:46:05.895Z,10.33
2019-03-22T03:47:05.932Z,10.4
2019-03-22T03:48:06.192Z,10.41
2019-03-22T03:49:06.221Z,10.35
2019-03-22T03:50:05.973Z,10.34
2019-03-22T03:51:05.995Z,10.33
2019-03-22T03:52:05.748Z,10.28
2019-03-22T03:53:05.762Z,10.3
2019-03-22T03:54:06.071Z,10.3
2019-03-22T03:55:06.082Z,10.3
2019-03-22T03:56:06.351Z,10.25
2019-03-22T03:57:05.877Z,10.3
2019-03-22T03:58:06.127Z,10.28
2019-03-22T03:59:06.207Z,10.31
2019-03-22T04:00:05.894Z,10.26
2019-03-22T04:01:06.174Z,10.3
2019-03-22T04:02:06.472Z,10.3
2019-03-22T04:03:06.319Z,10.25
2019-03-22T04:04:06.222Z,10.2
2019-03-22T04:05:06.280Z,10.28
2019-03-22T04:06:06.263Z,10.33
2019-03-22T04:07:06.310Z,10.28
2019-03-22T04:08:06.362Z,10.26
2019-03-22T04:09:06.338Z,10.22
2019-03-22T04:10:06.622Z,10.31
2019-03-22T04:11:06.365Z,10.25
2019-03-22T04:12:06.125Z,10.25
2019-03-22T04:13:06.143Z,10.28
2019-03-22T04:14:06.192Z,10.23
2019-03-22T04:15:06.446Z,10.25
2019-03-22T04:16:06.492Z,10.22
2019-03-22T04:17:06.216Z,10.26
2019-03-22T04:18:06.508Z,10.17
2019-03-22T04:19:06.500Z,10.23
2019-03-22T04:20:06.791Z,10.22
2019-03-22T04:21:06.276Z,10.19
2019-03-22T04:22:06.318Z,10.2
2019-03-22T04:23:06.365Z,10.16
2019-03-22T04:24:06.597Z,10.12
2019-03-22T04:25:06.981Z,10.15
2019-03-22T04:26:06.645Z,10.19
2019-03-22T04:27:06.391Z,10.26
2019-03-22T04:28:06.423Z,10.22
2019-03-22T04:29:13.039Z,10.19
2019-03-22T04:30:06.974Z,10.19
2019-03-22T04:31:06.724Z,10.17
2019-03-22T04:32:06.744Z,10.19
2019-03-22T04:33:09.040Z,10.16
2019-03-22T04:34:06.802Z,10.16
2019-03-22T04:35:06.588Z,10.22
2019-03-22T04:36:06.552Z,10.13
2019-03-22T04:37:06.578Z,10.15
2019-03-22T04:38:07.132Z,10.16
2019-03-22T04:39:06.890Z,10.16
2019-03-22T04:40:06.896Z,10.16
2019-03-22T04:41:06.907Z,10.16
2019-03-22T04:42:07.193Z,10.16
2019-03-22T04:43:06.946Z,10.19
2019-03-22T04:44:06.961Z,10.13
2019-03-22T04:45:06.726Z,10.12
2019-03-22T04:46:06.736Z,10.15
2019-03-22T04:47:07.022Z,10.19
2019-03-22T04:48:07.303Z,10.1
2019-03-22T04:49:07.134Z,10.16
2019-03-22T04:50:06.809Z,10.12
2019-03-22T04:51:07.106Z,10.17
2019-03-22T04:52:07.372Z,10.15
2019-03-22T04:53:07.387Z,10.16
2019-03-22T04:54:07.162Z,10.19
2019-03-22T04:55:07.169Z,10.16
2019-03-22T04:56:07.447Z,10.22
2019-03-22T04:57:07.209Z,10.19
2019-03-22T04:58:06.955Z,10.15
2019-03-22T04:59:18.307Z,10.17
2019-03-22T05:00:07.267Z,10.13
2019-03-22T05:01:07.276Z,10.16
2019-03-22T05:02:07.036Z,10.15
2019-03-22T05:03:07.316Z,10.13
2019-03-22T05:04:07.593Z,10.12
2019-03-22T05:05:07.616Z,10.05
2019-03-22T05:06:07.646Z,10.2
2019-03-22T05:07:07.390Z,10.1
2019-03-22T05:08:07.151Z,10.12
2019-03-22T05:09:07.425Z,10.12
2019-03-22T05:10:07.448Z,10.05
2019-03-22T05:11:07.464Z,10.12
2019-03-22T05:12:07.483Z,10.17
2019-03-22T05:13:07.233Z,10.12
2019-03-22T05:14:07.254Z,10.02
2019-03-22T05:15:07.538Z,10.04
2019-03-22T05:16:07.553Z,10.05
2019-03-22T05:17:07.841Z,10.07
2019-03-22T05:18:07.859Z,10.04
2019-03-22T05:19:07.874Z,10.01
2019-03-22T05:20:07.365Z,10.13
2019-03-22T05:21:07.643Z,10.15
2019-03-22T05:22:07.664Z,10.05
2019-03-22T05:23:07.951Z,10.07
2019-03-22T05:24:07.963Z,10.07
2019-03-22T05:25:07.728Z,10.05
2019-03-22T05:26:07.470Z,10.1
2019-03-22T05:27:07.497Z,10.16
2019-03-22T05:28:07.777Z,10.05
2019-03-22T05:29:08.067Z,10.12
2019-03-22T05:30:08.087Z,10.16
2019-03-22T05:31:07.846Z,10.09
2019-03-22T05:32:07.850Z,10.01
2019-03-22T05:33:07.874Z,10.12
2019-03-22T05:34:08.153Z,10.1
2019-03-22T05:35:09.940Z,10.02
2019-03-22T05:36:07.927Z,10.15
2019-03-22T05:37:07.680Z,10.1
2019-03-22T05:38:07.960Z,10.16
2019-03-22T05:39:07.712Z,10.04
2019-03-22T05:40:07.737Z,10.02
2019-03-22T05:41:08.279Z,10.01
2019-03-22T05:42:08.295Z,10.15
2019-03-22T05:43:08.051Z,10.09
2019-03-22T05:44:08.372Z,10.12
2019-03-22T05:45:07.825Z,10.1
2019-03-22T05:46:08.379Z,10.07
2019-03-22T05:47:08.126Z,10.09
2019-03-22T05:48:07.878Z,10.07
2019-03-22T05:49:08.155Z,10.04
2019-03-22T05:50:08.180Z,10.13
2019-03-22T05:51:08.465Z,10.1
2019-03-22T05:52:08.268Z,10.23
2019-03-22T05:53:07.970Z,10.2
2019-03-22T05:54:08.257Z,10.19
2019-03-22T05:55:08.009Z,10.17
2019-03-22T05:56:08.032Z,10.19
2019-03-22T05:57:18.058Z,10.17
2019-03-22T05:58:08.323Z,10.2
2019-03-22T05:59:08.343Z,10.16
2019-03-22T06:00:08.096Z,10.13
2019-03-22T06:01:08.382Z,10.16
2019-03-22T06:02:08.413Z,10.17
2019-03-22T06:03:08.157Z,10.19
2019-03-22T06:04:08.436Z,10.2
2019-03-22T06:05:08.720Z,10.12
2019-03-22T06:06:08.497Z,10.19
2019-03-22T06:07:08.756Z,10.13
2019-03-22T06:08:08.515Z,10.19
2019-03-22T06:09:08.267Z,10.22
2019-03-22T06:10:08.553Z,10.3
2019-03-22T06:11:08.565Z,10.28
2019-03-22T06:12:08.860Z,10.26
2019-03-22T06:13:08.603Z,10.26
2019-03-22T06:14:08.627Z,10.31
2019-03-22T06:15:08.640Z,10.3
2019-03-22T06:16:08.399Z,10.3
2019-03-22T06:17:09.040Z,10.3
2019-03-22T06:18:08.965Z,10.35
2019-03-22T06:19:08.716Z,10.31
2019-03-22T06:20:08.748Z,10.26
2019-03-22T06:21:08.755Z,10.2
2019-03-22T06:22:08.770Z,10.25
2019-03-22T06:23:08.791Z,10.3
2019-03-22T06:24:08.812Z,10.34
2019-03-22T06:25:08.846Z,10.31
2019-03-22T06:26:08.847Z,10.33
2019-03-22T06:27:08.859Z,10.34
2019-03-22T06:28:08.877Z,10.38
2019-03-22T06:29:09.191Z,10.37
2019-03-22T06:30:08.916Z,10.31
2019-03-22T06:31:08.682Z,10.44
2019-03-22T06:32:08.951Z,10.31
2019-03-22T06:33:09.233Z,10.41
2019-03-22T06:34:08.989Z,10.56
2019-03-22T06:35:08.750Z,10.56
2019-03-22T06:36:09.290Z,10.46
2019-03-22T06:37:09.318Z,10.48
2019-03-22T06:38:09.082Z,10.53
2019-03-22T06:39:08.855Z,10.49
2019-03-22T06:40:09.364Z,10.56
2019-03-22T06:41:09.127Z,10.54
2019-03-22T06:42:09.140Z,10.48
2019-03-22T06:43:09.163Z,10.59
2019-03-22T06:44:09.175Z,10.68
2019-03-22T06:45:08.928Z,10.61
2019-03-22T06:46:09.245Z,10.68
2019-03-22T06:47:11.034Z,10.61
2019-03-22T06:48:09.248Z,10.63
2019-03-22T06:49:09.267Z,10.61
2019-03-22T06:50:09.297Z,10.69
2019-03-22T06:51:09.572Z,10.69
2019-03-22T06:52:09.323Z,10.59
2019-03-22T06:53:09.610Z,10.68
2019-03-22T06:54:09.102Z,10.68
2019-03-22T06:55:09.639Z,10.71
2019-03-22T06:56:09.666Z,10.61
2019-03-22T06:57:09.415Z,10.72
2019-03-22T06:58:09.437Z,10.68
2019-03-22T06:59:09.460Z,10.59
2019-03-22T07:00:11.635Z,10.71
2019-03-22T07:01:09.492Z,10.61
2019-03-22T07:02:09.245Z,10.69
2019-03-22T07:03:09.785Z,10.63
2019-03-22T07:04:09.551Z,10.64
2019-03-22T07:05:09.565Z,10.68
2019-03-22T07:06:09.585Z,10.69
2019-03-22T07:07:09.599Z,10.74
2019-03-22T07:08:09.362Z,10.64
2019-03-22T07:09:09.642Z,10.64
2019-03-22T07:10:09.665Z,10.63
2019-03-22T07:11:09.777Z,10.63
2019-03-22T07:12:09.752Z,10.75
2019-03-22T07:13:09.715Z,10.64
2019-03-22T07:14:09.475Z,10.63
2019-03-22T07:15:09.754Z,10.69
2019-03-22T07:16:09.772Z,10.64
2019-03-22T07:17:10.057Z,10.64
2019-03-22T07:18:09.599Z,10.68
2019-03-22T07:19:09.825Z,10.69
2019-03-22T07:20:09.921Z,10.74
2019-03-22T07:21:09.859Z,10.71
2019-03-22T07:22:09.884Z,10.71
2019-03-22T07:23:09.901Z,10.72
2019-03-22T07:24:09.921Z,10.76
2019-03-22T07:25:09.947Z,10.78
2019-03-22T07:26:09.961Z,10.71
2019-03-22T07:27:10.240Z,10.76
2019-03-22T07:28:09.733Z,10.76
2019-03-22T07:29:10.033Z,10.82
2019-03-22T07:30:22.508Z,10.79
2019-03-22T07:31:10.055Z,10.84
2019-03-22T07:32:10.075Z,10.79
2019-03-22T07:33:09.828Z,10.76
2019-03-22T07:34:10.116Z,10.92
2019-03-22T07:35:10.128Z,10.76
2019-03-22T07:36:09.885Z,10.79
2019-03-22T07:37:10.429Z,10.78
2019-03-22T07:38:09.924Z,10.78
2019-03-22T07:39:09.939Z,10.86
2019-03-22T07:40:10.493Z,10.94
2019-03-22T07:41:09.984Z,10.89
2019-03-22T07:42:10.004Z,10.87
2019-03-22T07:43:10.543Z,10.9
2019-03-22T07:44:10.043Z,10.9
2019-03-22T07:45:10.328Z,10.93
2019-03-22T07:46:10.601Z,10.93
2019-03-22T07:47:10.357Z,10.94
2019-03-22T07:48:10.121Z,11.04
2019-03-22T07:49:10.657Z,10.93
2019-03-22T07:50:10.147Z,11.02
2019-03-22T07:51:10.433Z,11.02
2019-03-22T07:52:10.185Z,10.99
2019-03-22T07:53:10.733Z,10.99
2019-03-22T07:54:10.228Z,10.97
2019-03-22T07:55:10.560Z,11.04
2019-03-22T07:56:10.264Z,10.99
2019-03-22T07:57:10.545Z,11
2019-03-22T07:58:10.570Z,11.11
2019-03-22T07:59:12.357Z,11.02
2019-03-22T08:00:10.867Z,11.15
2019-03-22T08:01:10.616Z,11.12
2019-03-22T08:02:10.643Z,11.11
2019-03-22T08:03:10.931Z,11.1
2019-03-22T08:04:10.679Z,11.1
2019-03-22T08:05:10.702Z,11.1
2019-03-22T08:06:10.728Z,11.22
2019-03-22T08:07:11.012Z,11.11
2019-03-22T08:08:10.762Z,11.17
2019-03-22T08:09:10.532Z,11.22
2019-03-22T08:10:10.806Z,11.22
2019-03-22T08:11:10.853Z,11.18
2019-03-22T08:12:10.840Z,11.23
2019-03-22T08:13:10.865Z,11.22
2019-03-22T08:14:10.931Z,11.22
2019-03-22T08:15:12.853Z,11.23
2019-03-22T08:16:10.672Z,11.23
2019-03-22T08:17:10.696Z,11.23
2019-03-22T08:18:10.689Z,11.37
2019-03-22T08:19:10.985Z,11.29
2019-03-22T08:20:11.297Z,11.32
2019-03-22T08:21:11.043Z,11.32
2019-03-22T08:22:11.036Z,11.36
2019-03-22T08:23:11.090Z,11.32
2019-03-22T08:24:11.063Z,11.33
2019-03-22T08:25:11.447Z,11.37
2019-03-22T08:26:11.121Z,11.36
2019-03-22T08:27:10.884Z,11.45
2019-03-22T08:28:11.182Z,11.41
2019-03-22T08:29:11.171Z,11.35
2019-03-22T08:30:11.224Z,11.35
2019-03-22T08:31:11.161Z,11.44
2019-03-22T08:32:11.219Z,11.41
2019-03-22T08:33:11.251Z,11.37
2019-03-22T08:34:11.007Z,11.27
2019-03-22T08:35:11.611Z,11.41
2019-03-22T08:36:11.574Z,11.37
2019-03-22T08:37:11.315Z,11.36
2019-03-22T08:38:11.351Z,11.37
2019-03-22T08:39:11.100Z,11.43
2019-03-22T08:40:11.653Z,11.44
2019-03-22T08:41:11.399Z,11.41
2019-03-22T08:42:11.164Z,11.44
2019-03-22T08:43:11.475Z,11.5
2019-03-22T08:44:11.499Z,11.51
2019-03-22T08:45:13.884Z,11.52
2019-03-22T08:46:11.615Z,11.54
2019-03-22T08:47:11.327Z,11.59
2019-03-22T08:48:11.281Z,11.54
2019-03-22T08:49:13.995Z,11.54
2019-03-22T08:50:11.871Z,11.5
2019-03-22T08:51:11.408Z,11.59
2019-03-22T08:52:11.917Z,11.62
2019-03-22T08:53:11.640Z,11.57
2019-03-22T08:54:11.384Z,11.65
2019-03-22T08:55:11.759Z,11.65
2019-03-22T08:56:11.476Z,11.7
2019-03-22T08:57:11.749Z,11.68
2019-03-22T08:58:11.720Z,11.73
2019-03-22T08:59:13.436Z,11.72
2019-03-22T09:00:12.064Z,11.77
2019-03-22T09:01:12.083Z,11.81
2019-03-22T09:02:13.126Z,11.75
2019-03-22T09:03:11.602Z,11.8
2019-03-22T09:04:11.871Z,11.87
2019-03-22T09:05:11.944Z,11.9
2019-03-22T09:06:12.625Z,11.8
2019-03-22T09:07:11.972Z,11.83
2019-03-22T09:08:11.670Z,11.88
2019-03-22T09:09:11.970Z,11.91
2019-03-22T09:10:12.260Z,11.83
2019-03-22T09:11:12.267Z,11.84
2019-03-22T09:12:12.005Z,11.81
2019-03-22T09:13:11.805Z,11.84
2019-03-22T09:14:11.785Z,11.88
2019-03-22T09:15:12.367Z,11.87
2019-03-22T09:16:12.117Z,11.88
2019-03-22T09:17:12.449Z,11.9
2019-03-22T09:18:12.118Z,11.95
2019-03-22T09:19:12.392Z,11.97
2019-03-22T09:20:11.930Z,11.9
2019-03-22T09:21:11.961Z,11.9
2019-03-22T09:22:11.981Z,12.03
2019-03-22T09:23:12.484Z,11.9
2019-03-22T09:24:12.316Z,11.95
2019-03-22T09:25:12.315Z,11.97
2019-03-22T09:26:12.550Z,11.87
2019-03-22T09:27:12.080Z,11.97
2019-03-22T09:28:15.129Z,12.06
2019-03-22T09:29:12.382Z,12.03
2019-03-22T09:30:12.138Z,12
2019-03-22T09:31:15.949Z,12.04
2019-03-22T09:32:12.391Z,12.07
2019-03-22T09:33:13.431Z,12.07
2019-03-22T09:34:12.451Z,12.06
2019-03-22T09:35:12.714Z,12.09
2019-03-22T09:36:12.278Z,12.04
2019-03-22T09:37:13.891Z,12.12
2019-03-22T09:38:18.143Z,12.09
2019-03-22T09:39:12.631Z,12.12
2019-03-22T09:40:13.343Z,12.17
2019-03-22T09:41:12.339Z,12.06
2019-03-22T09:42:12.346Z,12.04
2019-03-22T09:43:12.885Z,12.12
2019-03-22T09:44:12.975Z,12.13
2019-03-22T09:45:14.253Z,12.09
2019-03-22T09:46:13.010Z,12.13
2019-03-22T09:47:12.447Z,12.15
2019-03-22T09:48:12.777Z,12.15
2019-03-22T09:49:13.032Z,12.22
2019-03-22T09:50:12.826Z,12.15
2019-03-22T09:51:13.121Z,12.2
2019-03-22T09:52:12.853Z,12.15
2019-03-22T09:53:12.838Z,12.18
2019-03-22T09:54:12.603Z,12.17
2019-03-22T09:55:18.762Z,12.2
2019-03-22T09:56:12.593Z,12.17
2019-03-22T09:57:13.223Z,12.27
2019-03-22T09:58:12.960Z,12.22
2019-03-22T09:59:13.003Z,12.24
2019-03-22T10:00:12.979Z,12.31
2019-03-22T10:01:25.312Z,12.24
2019-03-22T10:02:13.063Z,12.27
2019-03-22T10:03:13.047Z,12.32
2019-03-22T10:04:13.277Z,12.21
2019-03-22T10:05:12.832Z,12.29
2019-03-22T10:06:13.100Z,12.32
2019-03-22T10:07:12.898Z,12.31
2019-03-22T10:08:13.270Z,12.25
2019-03-22T10:09:13.188Z,12.28
2019-03-22T10:10:13.189Z,12.25
2019-03-22T10:11:12.950Z,12.37
2019-03-22T10:12:13.319Z,12.35
2019-03-22T10:13:13.129Z,12.28
2019-03-22T10:14:13.007Z,12.37
2019-03-22T10:15:13.331Z,12.36
2019-03-22T10:16:13.267Z,12.36
2019-03-22T10:17:13.268Z,12.32
2019-03-22T10:18:13.373Z,12.31
2019-03-22T10:19:13.353Z,12.42
2019-03-22T10:20:13.388Z,12.36
2019-03-22T10:21:26.087Z,12.42
2019-03-22T10:22:13.437Z,12.39
2019-03-22T10:23:13.495Z,12.37
2019-03-22T10:24:13.435Z,12.42
2019-03-22T10:25:13.843Z,12.45
2019-03-22T10:26:13.273Z,12.43
2019-03-22T10:27:13.768Z,12.46
2019-03-22T10:28:13.270Z,12.36
2019-03-22T10:29:13.572Z,12.49
2019-03-22T10:30:13.309Z,12.5
2019-03-22T10:31:13.338Z,12.5
2019-03-22T10:32:13.582Z,12.39
2019-03-22T10:33:26.486Z,12.6
2019-03-22T10:34:13.937Z,12.49
2019-03-22T10:35:27.017Z,12.55
2019-03-22T10:36:13.675Z,12.53
2019-03-22T10:37:13.938Z,12.42
2019-03-22T10:38:33.656Z,12.54
2019-03-22T10:39:13.606Z,12.5
2019-03-22T10:40:14.178Z,12.55
2019-03-22T10:41:13.890Z,12.54
2019-03-22T10:42:13.816Z,12.54
2019-03-22T10:43:13.836Z,12.54
2019-03-22T10:44:13.578Z,12.62
2019-03-22T10:45:14.250Z,12.54
2019-03-22T10:46:13.670Z,12.54
2019-03-22T10:47:14.154Z,12.6
2019-03-22T10:48:13.990Z,12.6
2019-03-22T10:49:13.903Z,12.55
2019-03-22T10:50:14.278Z,12.61
2019-03-22T10:51:13.753Z,12.62
2019-03-22T10:52:13.798Z,12.6
2019-03-22T10:53:13.868Z,12.67
2019-03-22T10:54:14.100Z,12.61
2019-03-22T10:55:35.455Z,12.64
2019-03-22T10:56:13.881Z,12.67
2019-03-22T10:57:14.065Z,12.65
2019-03-22T10:58:25.494Z,12.68
2019-03-22T10:59:14.106Z,12.62
2019-03-22T11:00:14.128Z,12.78
2019-03-22T11:01:14.142Z,12.72
2019-03-22T11:02:14.165Z,12.7
2019-03-22T11:03:13.925Z,12.7
2019-03-22T11:04:13.936Z,12.73
2019-03-22T11:05:14.236Z,12.67
2019-03-22T11:06:14.246Z,12.76
2019-03-22T11:07:14.313Z,12.79
2019-03-22T11:08:14.542Z,12.62
2019-03-22T11:09:14.311Z,12.7
2019-03-22T11:10:17.558Z,12.76
2019-03-22T11:11:14.342Z,12.7
2019-03-22T11:12:16.915Z,12.79
2019-03-22T11:13:14.382Z,12.78
2019-03-22T11:14:14.401Z,12.76
2019-03-22T11:15:14.167Z,12.8
2019-03-22T11:16:14.181Z,12.82
2019-03-22T11:17:14.730Z,12.8
2019-03-22T11:18:14.490Z,12.79
2019-03-22T11:19:14.784Z,12.79
2019-03-22T11:20:14.795Z,12.79
2019-03-22T11:21:14.549Z,12.85
2019-03-22T11:22:14.562Z,12.8
2019-03-22T11:23:14.849Z,12.82
2019-03-22T11:24:14.608Z,12.83
2019-03-22T11:25:14.624Z,12.9
2019-03-22T11:26:14.386Z,12.91
2019-03-22T11:27:16.312Z,12.9
2019-03-22T11:28:16.375Z,12.93
2019-03-22T11:29:14.709Z,12.91
2019-03-22T11:30:14.464Z,12.87
2019-03-22T11:31:14.745Z,12.91
2019-03-22T11:32:17.788Z,12.97
2019-03-22T11:33:14.819Z,12.95
2019-03-22T11:34:15.068Z,12.98
2019-03-22T11:35:14.829Z,13.01
2019-03-22T11:36:15.116Z,13.01
2019-03-22T11:37:14.866Z,12.95
2019-03-22T11:38:15.157Z,12.95
2019-03-22T11:39:20.435Z,13.01
2019-03-22T11:40:14.928Z,13
2019-03-22T11:41:14.945Z,13
2019-03-22T11:42:14.707Z,13.04
2019-03-22T11:43:14.996Z,13.04
2019-03-22T11:44:14.747Z,13.04
2019-03-22T11:45:15.033Z,13.05
2019-03-22T11:46:15.058Z,13.13
2019-03-22T11:47:15.069Z,13.05
2019-03-22T11:48:15.089Z,13.12
2019-03-22T11:49:15.115Z,13.12
2019-03-22T11:50:15.152Z,13.12
2019-03-22T11:51:14.888Z,13.13
2019-03-22T11:52:15.172Z,13.13
2019-03-22T11:53:15.191Z,13.16
2019-03-22T11:54:15.210Z,13.15
2019-03-22T11:55:15.236Z,13.18
2019-03-22T11:56:14.989Z,13.16
2019-03-22T11:57:15.291Z,13.15
2019-03-22T11:58:15.035Z,13.23
2019-03-22T11:59:15.314Z,13.2
2019-03-22T12:00:15.334Z,13.25
2019-03-22T12:01:25.123Z,13.16
2019-03-22T12:02:24.735Z,13.33
2019-03-22T12:03:15.161Z,13.28
2019-03-22T12:04:16.593Z,13.19
2019-03-22T12:05:15.441Z,13.27
2019-03-22T12:06:15.458Z,13.37
2019-03-22T12:07:17.441Z,13.27
2019-03-22T12:08:15.497Z,13.3
2019-03-22T12:09:15.265Z,13.33
2019-03-22T12:10:15.547Z,13.47
2019-03-22T12:11:15.827Z,13.41
2019-03-22T12:12:15.322Z,13.33
2019-03-22T12:13:15.337Z,13.44
2019-03-22T12:14:15.886Z,13.38
2019-03-22T12:15:15.643Z,13.41
2019-03-22T12:16:15.399Z,13.39
2019-03-22T12:17:15.683Z,13.37
2019-03-22T12:18:15.701Z,13.44
2019-03-22T12:19:15.460Z,13.49
2019-03-22T12:20:15.742Z,13.49
2019-03-22T12:21:15.763Z,13.53
2019-03-22T12:22:15.808Z,13.42
2019-03-22T12:23:16.072Z,13.46
2019-03-22T12:24:16.088Z,13.59
2019-03-22T12:25:15.623Z,13.57
2019-03-22T12:26:15.869Z,13.59
2019-03-22T12:27:15.894Z,13.53
2019-03-22T12:28:15.663Z,13.42
2019-03-22T12:29:15.934Z,13.63
2019-03-22T12:30:15.688Z,13.57
2019-03-22T12:31:16.239Z,13.63
2019-03-22T12:32:15.993Z,13.56
2019-03-22T12:33:16.012Z,13.67
2019-03-22T12:34:16.291Z,13.62
2019-03-22T12:35:15.788Z,13.67
2019-03-22T12:36:16.077Z,13.68
2019-03-22T12:37:15.837Z,13.65
2019-03-22T12:38:15.889Z,13.7
2019-03-22T12:39:16.210Z,13.77
2019-03-22T12:40:15.894Z,13.87
2019-03-22T12:41:16.182Z,13.7
2019-03-22T12:42:15.944Z,13.75
2019-03-22T12:43:16.488Z,13.72
2019-03-22T12:44:15.978Z,13.78
2019-03-22T12:45:16.262Z,13.79
2019-03-22T12:46:16.281Z,13.83
2019-03-22T12:47:16.300Z,13.85
2019-03-22T12:48:16.328Z,13.87
2019-03-22T12:49:16.612Z,13.92
2019-03-22T12:50:16.097Z,13.96
2019-03-22T12:51:16.399Z,13.97
2019-03-22T12:52:16.663Z,14
2019-03-22T12:53:16.219Z,14
2019-03-22T12:54:16.711Z,14.04
2019-03-22T12:55:16.206Z,14
2019-03-22T12:56:16.487Z,14.03